默认 日期 大小 文件数 浏览量 最新下载 xml
vuelta磁力链接相关资源由用户搜索指令自动获取,结果来源于网络,本站不存储任何资料,亦不承担任何责任,请于24小时内删除,搜索到897个磁力,用时1ms。
    ... 29.08.mkv": 1080744857, "Vuelta.Stage12.Ponteareas-Pontevedra.01.09 ... .mkv": 1161907397, "Vuelta.Stage17.Faustino.V-Pena.Cabarga ... .09.mkv": 865327910, "Vuelta.Stage21.Circuito.del.Jarama-Madrid ... .09.mkv": 1712041379, "Vuelta.Stage09.Villacastin-Sierra.de.Bejar ...
创建时间: 2019-06-11 21:28:28 大小:22.34 GB 文件数量:21 热度:3 最近下载:2021-06-17 16:25:58
    {"La panda de la selva (vuelta al hielo)2011) [DVDrip][Castellano][www.lokotorrents.com].avi": 859740160}
创建时间: 2019-06-17 23:19:21 大小:819.91 MB 文件数量:1 热度:3 最近下载:2021-06-17 16:25:58
    ... .newpct.com].avi": 375810048, "De Vuelta Al Nido - Temp.2 [HDTV ... .newpct.com].avi": 357894144, "De Vuelta Al Nido - Temp.2 [HDTV ... .newpct.com].avi": 376006656, "De Vuelta Al Nido - Temp.2 [HDTV ... .newpct.com].avi": 375906304, "De Vuelta Al Nido - Temp.2 [HDTV ...
创建时间: 2019-06-18 00:48:34 大小:3.14 GB 文件数量:9 热度:8 最近下载:2025-07-27 04:25:01
    ... Fermoselle 1080i.mkv": 11474298991, "Vuelta 2018 14 Cistierna - Les Praeres ... part 1.mkv": 12404514429, "Vuelta 2018 14 Cistierna - Les ... part 2.mkv": 9941170347, "Vuelta 2018 11 Mombuey - Ribeira ... Luintra 1080i.mkv": 10162187281, "Vuelta 2018 12 Mondonedo - Faro ...
创建时间: 2019-06-24 01:48:22 大小:86.35 GB 文件数量:8 热度:8 最近下载:2025-02-20 16:45:01
    {"VIDEO_TS.BUP": 12288, "VIDEO_TS.IFO": 12288, "VIDEO_TS.VOB": 32768, "VTS_01_0.BUP": 81920, "VTS_01_0.IFO": 81920, "VTS_01_1.VOB": 1073709056, "VTS_01_2.VOB": 1073709056, "VTS_01_3.VOB": 1073709056, "VTS_01_4.VOB": 1073709056, "VTS_01_5.VOB": 46835712}
创建时间: 2019-06-24 08:41:18 大小:4.04 GB 文件数量:10 热度:5 最近下载:2022-04-15 05:56:33
    {"De Vuelta Al Nido - Temp.1 [HDTV][Cap.104][Spanish][www.pctestrenos.com].avi": 382285824, "De Vuelta Al Nido - Temp.1 [HDTV][Cap.105][Spanish][www.pctestrenos.com].avi": 382519296}
创建时间: 2019-06-25 03:11:07 大小:729.38 MB 文件数量:2 热度:6 最近下载:2025-04-06 12:45:02
    {"De Vuelta Al Nido - Temp.1 [HDTV][Cap.116][Spanish][www.pctestrenos.com].avi": 380571648}
创建时间: 2019-06-25 21:57:24 大小:362.94 MB 文件数量:1 热度:7 最近下载:2025-08-22 23:09:02
    {"De Vuelta Al Nido - Temp.1 [HDTV][Cap.117][Spanish].avi": 380946532}
创建时间: 2019-06-29 04:57:55 大小:363.3 MB 文件数量:1 热度:5 最近下载:2025-02-28 02:59:01
    ... 03 [SporzaHD].mkv": 2388716366, "Vuelta a Espana 2012 - 04 [ ... SporzaHD].mkv": 2942295657, "Vuelta a Espana 2012 - 05 [ ... SporzaHD].mkv": 3001118283, "Vuelta a Espana 2012 - 06 [ ... 09 [SporzaHD].mkv": 1256037207, "Vuelta a Espana 2012 - 01 [EurosportHD ...
创建时间: 2019-06-29 22:47:54 大小:19.14 GB 文件数量:9 热度:4 最近下载:2024-11-29 22:18:03
    ... (RUS).avi": 682696704, "Vuelta a Espana 2009 07 (Valencia ... Eurosport (RUS).avi": 1437175808, "Vuelta a Espana 2009 03 (Zutphen ... (RUS).avi": 876851200, "Vuelta a Espana 2009 10 (Alicante ... Eurosport (RUS).avi": 945522688, "Vuelta a Espana 2009 05 (Tarragona ...
创建时间: 2019-07-04 22:24:18 大小:23.69 GB 文件数量:26 热度:5 最近下载:2024-12-04 15:38:02
    {"leer...txt": 39, "La.Vuelta.Al.Mundo.En.80.dIas.Audio.Latino.DvDrip.Xdiv.Mrpio.avi": 733980672}
创建时间: 2019-07-22 05:46:16 大小:699.98 MB 文件数量:2 热度:11 最近下载:2024-05-06 14:04:04
    {"Vuelta_2016_01.avi": 1292381760, "Vuelta_2016_02.avi": 1507972038, "Vuelta_2016_03.avi": 1682750360, "Vuelta_2016_04.avi": 1502400602, "Vuelta_2016_05.avi": 1644004782, "Vuelta_2016_06.avi": 1514620712, "Vuelta_2016_07.avi": 1736204592, "Vuelta_2016_08. ...
创建时间: 2019-08-12 10:41:50 大小:34.21 GB 文件数量:23 热度:3 最近下载:2022-11-12 10:21:57
    {"PCTNEW ORG.url": 113, "DESCARGAS2020.url": 124, "Vuelta a Casa De Mi Madre [BluRay Rip][AC3 5.1 Castellano][2016][www.descargas2020.ORG][www.pctnew.ORG].avi": 1734856708}
创建时间: 2019-08-20 22:44:28 大小:1.62 GB 文件数量:3 热度:11 最近下载:2025-09-19 04:57:06
    {"Votanos!!.url": 566, "Peliculas CVCD.url": 375, "Peliculas Divx.url": 126, "A.La.Vuelta.De.La.Esquina.DVDScreener.XviD.MP3.[Spanish].[www.DivxTotal.com].avi": 729681920}
创建时间: 2019-08-22 12:44:13 大小:695.88 MB 文件数量:4 热度:5 最近下载:2025-09-18 20:54:13
    ... ": 134890}, "Tango Negro Trio - La Vuelta Del Malon.cue": 2082, "Tango ... Negro Trio - La Vuelta Del Malon.log": 9326, "Tango ... Negro Trio - La Vuelta Del Malon.flac": 315842887}
创建时间: 2019-08-23 07:30:54 大小:328.35 MB 文件数量:11 热度:6 最近下载:2025-07-27 04:05:02
    {"74th.Vuelta.a.Espana.2019.roadbook-Z37O.nfo": 7680, "74th.Vuelta.a.Espana.2019.roadbook-Z37O.pdf": 66780825, "74th.Vuelta.a.Espana.2019.route.map-Z37O.pdf": 3968783, "74th.Vuelta.a.Espana.2019.regulations-Z37O.pdf": 3328295}
创建时间: 2019-08-23 08:17:37 大小:70.65 MB 文件数量:4 热度:8 最近下载:2025-06-25 14:38:04
    {"Vuelta a Espana 2019 01 Salinas de Torrevieja - Torrevieja (TTT) 1080i.mkv": 7419499311}
创建时间: 2019-08-25 22:30:45 大小:6.91 GB 文件数量:1 热度:6 最近下载:2025-01-20 09:51:09
    {"LaVuelta 2019 01 Salinas de Torrevieja - Torrevieja (TTT) 720p.mkv": 3011942130}
创建时间: 2019-08-26 01:48:34 大小:2.81 GB 文件数量:1 热度:7 最近下载:2025-01-19 22:19:04
    {"Vuelta a Espana 2019 02 Benidorm - Calpe 1080i.mkv": 11991958477, "Vuelta a Espana 2019 01 Salinas de Torrevieja - Torrevieja (TTT) 1080i.mkv": 7419499311}
创建时间: 2019-08-27 00:09:48 大小:18.08 GB 文件数量:2 热度:7 最近下载:2024-12-15 23:56:02
    {"LaVuelta 2019 03 Ibi - Alicante 720p part 1.mkv": 2260902808, "LaVuelta 2019 03 Ibi - Alicante 720p part 2.mkv": 1679590054, "LaVuelta 2019 02 Benidorm - Calpe 720p part 1.mkv": 3890206638, "LaVuelta 2019 02 Benidorm - Calpe 720p part 2 extra.mkv": ...
创建时间: 2019-08-27 06:38:47 大小:10.76 GB 文件数量:5 热度:7 最近下载:2024-12-17 09:52:01